createdAt,value
2017-10-27T00:00:01.607Z,83.01
2017-10-27T00:02:36.175Z,82.85
2017-10-27T00:05:14.783Z,82.92
2017-10-27T00:07:49.251Z,82.94
2017-10-27T00:10:23.832Z,82.67
2017-10-27T00:12:58.479Z,83.14
2017-10-27T00:15:33.003Z,82.69
2017-10-27T00:18:11.570Z,83.12
2017-10-27T00:20:46.146Z,83.18
2017-10-27T00:23:20.565Z,82.91
2017-10-27T00:25:55.165Z,83.34
2017-10-27T00:28:30.310Z,83.09
2017-10-27T00:31:04.730Z,83.01
2017-10-27T00:33:39.260Z,83.16
2017-10-27T00:36:13.835Z,82.06
2017-10-27T00:38:48.358Z,83.16
2017-10-27T00:41:22.751Z,83.02
2017-10-27T00:43:57.353Z,82.61
2017-10-27T00:46:31.781Z,82.04
2017-10-27T00:49:06.255Z,82.87
2017-10-27T00:51:40.696Z,82.76
2017-10-27T00:54:15.238Z,83.50
2017-10-27T00:56:49.418Z,82.11
2017-10-27T00:59:23.639Z,82.28
2017-10-27T01:01:58.791Z,83.28
2017-10-27T01:04:33.334Z,83.62
2017-10-27T01:07:07.814Z,83.33
2017-10-27T01:09:42.254Z,82.99
2017-10-27T01:12:16.663Z,82.96
2017-10-27T01:14:51.283Z,82.35
2017-10-27T01:17:25.798Z,82.55
2017-10-27T01:20:00.409Z,83.01
2017-10-27T01:22:34.824Z,83.16
2017-10-27T01:25:11.852Z,82.82
2017-10-27T01:27:46.079Z,83.21
2017-10-27T01:30:20.189Z,83.09
2017-10-27T01:32:54.375Z,82.52
2017-10-27T01:35:28.501Z,82.25
2017-10-27T01:38:02.560Z,82.16
2017-10-27T01:40:36.667Z,81.53
2017-10-27T01:43:10.927Z,81.57
2017-10-27T01:45:45.991Z,81.67
2017-10-27T01:48:20.131Z,81.89
2017-10-27T01:50:54.524Z,81.37
2017-10-27T01:53:28.628Z,81.90
2017-10-27T01:56:03.134Z,81.99
2017-10-27T01:58:38.394Z,82.07
2017-10-27T02:01:13.058Z,81.92
2017-10-27T02:03:48.141Z,81.26
2017-10-27T02:06:22.200Z,81.74
2017-10-27T02:08:56.610Z,81.36
2017-10-27T02:11:31.142Z,80.93
2017-10-27T02:14:05.255Z,80.49
2017-10-27T02:16:39.747Z,80.38
2017-10-27T02:19:14.022Z,80.56
2017-10-27T02:21:48.459Z,80.56
2017-10-27T02:24:22.594Z,80.01
2017-10-27T02:26:57.119Z,79.50
2017-10-27T02:29:31.174Z,79.76
2017-10-27T02:32:05.357Z,80.10
2017-10-27T02:34:39.498Z,81.06
2017-10-27T02:37:13.634Z,81.15
2017-10-27T02:39:47.707Z,81.30
2017-10-27T02:42:22.095Z,81.53
2017-10-27T02:44:56.683Z,81.31
2017-10-27T02:47:31.090Z,82.16
2017-10-27T02:50:11.563Z,82.18
2017-10-27T02:52:45.998Z,81.85
2017-10-27T02:55:20.580Z,82.10
2017-10-27T02:57:55.150Z,82.21
2017-10-27T03:00:29.288Z,82.42
2017-10-27T03:03:03.723Z,82.50
2017-10-27T03:05:38.184Z,82.31
2017-10-27T03:08:12.606Z,82.36
2017-10-27T03:10:47.031Z,82.58
2017-10-27T03:13:21.553Z,82.05
2017-10-27T03:15:56.062Z,81.79
2017-10-27T03:18:30.580Z,82.19
2017-10-27T03:21:05.679Z,81.93
2017-10-27T03:23:40.099Z,82.04
2017-10-27T03:26:14.597Z,82.51
2017-10-27T03:28:48.782Z,82.60
2017-10-27T03:31:23.269Z,82.76
2017-10-27T03:33:57.843Z,82.51
2017-10-27T03:36:32.258Z,82.79
2017-10-27T03:39:06.943Z,82.09
2017-10-27T03:41:41.353Z,82.13
2017-10-27T03:44:16.034Z,81.70
2017-10-27T03:46:50.463Z,81.58
2017-10-27T03:49:25.067Z,82.74
2017-10-27T03:51:59.528Z,82.03
2017-10-27T03:54:34.083Z,82.61
2017-10-27T03:57:08.577Z,82.01
2017-10-27T03:59:43.083Z,82.07
2017-10-27T04:02:17.490Z,82.55
2017-10-27T04:04:52.203Z,82.10
2017-10-27T04:07:26.922Z,82.51
2017-10-27T04:10:01.593Z,82.78
2017-10-27T04:12:36.294Z,83.70
2017-10-27T04:15:15.185Z,82.78
2017-10-27T04:17:49.814Z,82.20
2017-10-27T04:20:24.667Z,83.39
2017-10-27T04:22:59.182Z,83.67
2017-10-27T04:25:33.590Z,83.63
2017-10-27T04:28:08.210Z,83.24
2017-10-27T04:30:42.640Z,82.63
2017-10-27T04:33:17.051Z,82.55
2017-10-27T04:35:51.507Z,81.99
2017-10-27T04:38:26.028Z,81.12
2017-10-27T04:41:00.482Z,82.56
2017-10-27T04:43:34.989Z,83.03
2017-10-27T04:46:09.891Z,82.28
2017-10-27T04:48:44.419Z,81.37
2017-10-27T04:51:18.844Z,81.69
2017-10-27T04:53:53.699Z,81.56
2017-10-27T04:56:28.102Z,81.59
2017-10-27T04:59:02.731Z,81.70
2017-10-27T05:01:37.147Z,82.07
2017-10-27T05:04:11.642Z,82.00
2017-10-27T05:06:45.908Z,81.45
2017-10-27T05:09:20.443Z,81.87
2017-10-27T05:11:54.929Z,82.32
2017-10-27T05:14:29.340Z,83.03
2017-10-27T05:17:09.155Z,82.78
2017-10-27T05:19:49.203Z,82.64
2017-10-27T05:22:29.170Z,82.59
2017-10-27T05:25:03.856Z,82.40
2017-10-27T05:27:38.428Z,82.31
2017-10-27T05:30:13.766Z,82.17
2017-10-27T05:32:48.404Z,82.14
2017-10-27T05:35:23.255Z,82.36
2017-10-27T05:37:57.647Z,82.01
2017-10-27T05:40:32.166Z,81.48
2017-10-27T05:43:06.647Z,81.59
2017-10-27T05:45:40.723Z,81.52
2017-10-27T05:48:15.276Z,81.33
2017-10-27T05:50:49.738Z,81.80
2017-10-27T05:53:24.199Z,82.52
2017-10-27T05:55:58.641Z,83.27
2017-10-27T05:58:33.079Z,85.38
2017-10-27T06:01:07.662Z,85.65
2017-10-27T06:03:42.223Z,86.21
2017-10-27T06:06:16.671Z,86.30
2017-10-27T06:08:51.250Z,86.64
2017-10-27T06:11:25.770Z,86.82
2017-10-27T06:14:00.286Z,87.40
2017-10-27T06:16:34.773Z,87.63
2017-10-27T06:19:09.306Z,87.46
2017-10-27T06:21:43.735Z,88.17
2017-10-27T06:24:18.286Z,88.40
2017-10-27T06:26:52.801Z,89.06
2017-10-27T06:29:27.323Z,88.28
2017-10-27T06:32:01.792Z,88.16
2017-10-27T06:34:36.330Z,88.44
2017-10-27T06:37:13.770Z,88.25
2017-10-27T06:39:48.227Z,86.62
2017-10-27T06:42:22.668Z,85.51
2017-10-27T06:44:57.345Z,85.39
2017-10-27T06:47:31.791Z,86.21
2017-10-27T06:50:14.124Z,87.63
2017-10-27T06:52:48.548Z,88.04
2017-10-27T06:55:23.094Z,87.92
2017-10-27T06:57:57.633Z,88.20
2017-10-27T07:00:31.676Z,88.38
2017-10-27T07:03:06.238Z,88.19
2017-10-27T07:05:40.983Z,87.56
2017-10-27T07:08:15.384Z,87.77
2017-10-27T07:10:49.855Z,87.83
2017-10-27T07:13:24.364Z,87.96
2017-10-27T07:15:58.849Z,88.85
2017-10-27T07:18:33.425Z,89.28
2017-10-27T07:21:07.863Z,89.22
2017-10-27T07:23:42.457Z,89.45
2017-10-27T07:26:16.894Z,89.35
2017-10-27T07:28:51.315Z,89.13
2017-10-27T07:31:25.512Z,88.92
2017-10-27T07:34:00.075Z,88.60
2017-10-27T07:36:34.498Z,88.43
2017-10-27T07:39:08.679Z,87.97
2017-10-27T07:41:42.771Z,87.43
2017-10-27T07:44:17.034Z,86.55
2017-10-27T07:46:51.147Z,86.61
2017-10-27T07:49:25.923Z,84.13
2017-10-27T07:52:00.626Z,83.14
2017-10-27T07:54:35.091Z,83.26
2017-10-27T07:57:09.302Z,83.18
2017-10-27T07:59:43.874Z,82.92
2017-10-27T08:02:18.072Z,83.57
2017-10-27T08:04:52.152Z,83.51
2017-10-27T08:07:26.282Z,83.77
2017-10-27T08:10:00.542Z,82.90
2017-10-27T08:12:34.644Z,82.39
2017-10-27T08:15:12.734Z,83.26
2017-10-27T08:17:47.208Z,83.18
2017-10-27T08:20:21.296Z,82.93
2017-10-27T08:22:55.694Z,82.37
2017-10-27T08:25:29.827Z,82.39
2017-10-27T08:28:04.054Z,80.62
2017-10-27T08:30:38.470Z,81.13
2017-10-27T08:33:13.320Z,80.76
2017-10-27T08:35:47.805Z,80.00
2017-10-27T08:38:21.999Z,79.62
2017-10-27T08:40:56.099Z,79.55
2017-10-27T08:43:30.326Z,80.22
2017-10-27T08:46:04.407Z,78.89
2017-10-27T08:48:38.635Z,78.60
2017-10-27T08:51:13.166Z,78.77
2017-10-27T08:53:47.268Z,78.25
2017-10-27T08:56:22.070Z,78.50
2017-10-27T08:58:56.354Z,77.71
2017-10-27T09:01:30.500Z,77.88
2017-10-27T09:04:04.651Z,76.78
2017-10-27T09:06:39.080Z,77.61
2017-10-27T09:09:13.391Z,77.76
2017-10-27T09:11:47.682Z,76.87
2017-10-27T09:14:21.786Z,77.48
2017-10-27T09:16:55.886Z,76.06
2017-10-27T09:19:30.150Z,75.36
2017-10-27T09:22:04.223Z,75.41
2017-10-27T09:24:38.494Z,75.58
2017-10-27T09:27:13.080Z,74.96
2017-10-27T09:29:47.588Z,74.00
2017-10-27T09:32:21.692Z,73.99
2017-10-27T09:34:56.567Z,73.44
2017-10-27T09:37:31.450Z,73.72
2017-10-27T09:40:13.606Z,73.20
2017-10-27T09:42:48.135Z,73.53
2017-10-27T09:45:22.245Z,72.63
2017-10-27T09:47:56.310Z,72.34
2017-10-27T09:50:30.503Z,71.86
2017-10-27T09:53:04.714Z,72.68
2017-10-27T09:55:38.778Z,86.39
2017-10-27T09:58:13.015Z,90.57
2017-10-27T10:00:47.106Z,89.96
2017-10-27T10:03:21.206Z,85.34
2017-10-27T10:05:58.239Z,88.28
2017-10-27T10:08:32.403Z,89.27
2017-10-27T10:11:06.955Z,90.52
2017-10-27T10:13:41.203Z,87.96
2017-10-27T10:16:15.322Z,89.19
2017-10-27T10:18:49.423Z,89.21
2017-10-27T10:21:23.879Z,89.00
2017-10-27T10:23:59.702Z,88.99
2017-10-27T10:26:34.541Z,88.99
2017-10-27T10:29:15.551Z,87.67
2017-10-27T10:31:49.987Z,87.99
2017-10-27T10:34:24.480Z,87.81
2017-10-27T10:36:58.696Z,88.51
2017-10-27T10:39:32.974Z,87.57
2017-10-27T10:42:07.382Z,87.82
2017-10-27T10:44:41.563Z,88.49
2017-10-27T10:47:16.518Z,89.34
2017-10-27T10:49:52.842Z,90.25
2017-10-27T10:52:27.873Z,90.45
2017-10-27T10:55:02.895Z,90.63
2017-10-27T10:57:42.828Z,90.24
2017-10-27T11:00:17.017Z,90.22
2017-10-27T11:02:55.866Z,89.38
2017-10-27T11:05:30.103Z,88.08
2017-10-27T11:08:04.658Z,88.71
2017-10-27T11:10:38.759Z,88.79
2017-10-27T11:13:14.618Z,88.87
2017-10-27T11:15:49.920Z,88.19
2017-10-27T11:18:25.747Z,88.92
2017-10-27T11:20:59.997Z,88.56
2017-10-27T11:23:34.005Z,88.56
2017-10-27T11:26:08.401Z,88.52
2017-10-27T11:28:42.627Z,89.12
2017-10-27T11:31:19.751Z,89.05
2017-10-27T11:33:53.898Z,89.65
2017-10-27T11:36:28.078Z,90.39
2017-10-27T11:39:02.169Z,90.32
2017-10-27T11:41:40.219Z,90.23
2017-10-27T11:44:14.875Z,89.97
2017-10-27T11:46:49.280Z,90.09
2017-10-27T11:49:24.356Z,90.25
2017-10-27T11:51:59.006Z,89.87
2017-10-27T11:54:33.554Z,91.29
2017-10-27T11:57:07.972Z,89.67
2017-10-27T11:59:42.521Z,90.41
2017-10-27T12:02:16.925Z,89.88
2017-10-27T12:04:51.697Z,90.30
2017-10-27T12:07:26.696Z,89.52
2017-10-27T12:10:00.986Z,88.66
2017-10-27T12:12:35.123Z,88.26
2017-10-27T12:15:11.395Z,88.01
2017-10-27T12:17:53.692Z,88.92
2017-10-27T12:20:28.034Z,88.64
2017-10-27T12:23:02.567Z,87.96
2017-10-27T12:25:36.614Z,88.26
2017-10-27T12:28:13.038Z,88.18
2017-10-27T12:30:47.511Z,88.19
2017-10-27T12:33:21.574Z,87.79
2017-10-27T12:35:55.963Z,87.13
2017-10-27T12:38:30.269Z,88.07
2017-10-27T12:41:04.675Z,86.76
2017-10-27T12:43:38.874Z,85.77
2017-10-27T12:46:14.152Z,86.67
2017-10-27T12:48:48.697Z,85.04
2017-10-27T12:51:23.851Z,84.14
2017-10-27T12:53:58.492Z,84.95
2017-10-27T12:56:33.231Z,84.38
2017-10-27T12:59:07.683Z,83.10
2017-10-27T13:01:41.846Z,81.37
2017-10-27T13:04:16.350Z,80.58
2017-10-27T13:06:50.989Z,79.34
2017-10-27T13:09:25.904Z,79.49
2017-10-27T13:12:05.914Z,79.72
2017-10-27T13:14:41.313Z,80.26
2017-10-27T13:17:15.554Z,80.29
2017-10-27T13:19:53.902Z,80.73
2017-10-27T13:22:28.086Z,79.95
2017-10-27T13:25:02.283Z,79.54
2017-10-27T13:27:36.787Z,80.28
2017-10-27T13:30:16.031Z,79.81
2017-10-27T13:32:51.550Z,79.08
2017-10-27T13:35:26.180Z,79.31
2017-10-27T13:38:01.146Z,79.35
2017-10-27T13:40:35.440Z,80.03
2017-10-27T13:43:09.663Z,79.22
2017-10-27T13:45:43.762Z,80.31
2017-10-27T13:48:18.822Z,79.41
2017-10-27T13:50:53.046Z,79.38
2017-10-27T13:53:27.480Z,78.59
2017-10-27T13:56:02.775Z,78.87
2017-10-27T13:58:37.106Z,79.69
2017-10-27T14:01:12.063Z,80.78
2017-10-27T14:03:46.168Z,80.21
2017-10-27T14:06:20.264Z,81.23
2017-10-27T14:08:54.377Z,80.62
2017-10-27T14:11:28.513Z,79.73
2017-10-27T14:14:03.439Z,80.04
2017-10-27T14:16:37.890Z,79.54
2017-10-27T14:19:12.342Z,79.45
2017-10-27T14:21:46.791Z,80.23
2017-10-27T14:24:21.367Z,79.59
2017-10-27T14:26:55.471Z,79.96
2017-10-27T14:29:30.025Z,79.65
2017-10-27T14:32:04.474Z,79.18
2017-10-27T14:34:38.738Z,79.52
2017-10-27T14:37:13.646Z,79.22
2017-10-27T14:39:48.106Z,79.65
2017-10-27T14:42:27.003Z,79.37
2017-10-27T14:45:02.823Z,80.00
2017-10-27T14:47:42.607Z,80.29
2017-10-27T14:50:17.004Z,81.70
2017-10-27T14:52:51.638Z,82.90
2017-10-27T14:55:26.073Z,82.27
2017-10-27T14:58:00.624Z,82.20
2017-10-27T15:00:35.762Z,82.16
2017-10-27T15:03:10.319Z,83.01
2017-10-27T15:05:51.155Z,83.02
2017-10-27T15:08:31.613Z,83.89
2017-10-27T15:11:05.859Z,84.19
2017-10-27T15:13:40.989Z,83.78
2017-10-27T15:16:17.050Z,83.18
2017-10-27T15:18:52.480Z,82.12
2017-10-27T15:21:30.375Z,81.59
2017-10-27T15:24:04.816Z,81.93
2017-10-27T15:26:38.870Z,80.95
2017-10-27T15:29:13.032Z,80.32
2017-10-27T15:31:47.683Z,79.66
2017-10-27T15:34:22.314Z,79.79
2017-10-27T15:36:56.170Z,80.13
2017-10-27T15:39:30.719Z,79.06
2017-10-27T15:42:05.172Z,79.53
2017-10-27T15:44:39.722Z,79.48
2017-10-27T15:47:14.180Z,79.31
2017-10-27T15:49:48.810Z,79.61
2017-10-27T15:52:23.499Z,79.48
2017-10-27T15:54:57.885Z,78.21
2017-10-27T15:57:33.367Z,77.74
2017-10-27T16:00:25.389Z,77.44
2017-10-27T16:03:05.804Z,76.71
2017-10-27T16:05:40.435Z,76.46
2017-10-27T16:08:14.870Z,77.04
2017-10-27T16:10:49.314Z,77.50
2017-10-27T16:13:23.916Z,77.64
2017-10-27T16:15:58.335Z,77.85
2017-10-27T16:18:32.875Z,77.95
2017-10-27T16:21:07.947Z,78.08
2017-10-27T16:23:42.377Z,78.36
2017-10-27T16:26:16.836Z,78.39
2017-10-27T16:28:51.418Z,78.05
2017-10-27T16:31:25.906Z,77.08
2017-10-27T16:34:00.467Z,76.93
2017-10-27T16:36:36.115Z,77.00
2017-10-27T16:39:10.644Z,76.88
2017-10-27T16:41:45.387Z,76.68
2017-10-27T16:44:19.915Z,76.74
2017-10-27T16:46:54.379Z,76.77
2017-10-27T16:49:29.503Z,77.11
2017-10-27T16:52:04.544Z,78.34
2017-10-27T16:54:38.957Z,79.09
2017-10-27T16:57:13.275Z,79.55
2017-10-27T16:59:47.735Z,79.32
2017-10-27T17:02:22.175Z,78.64
2017-10-27T17:04:56.699Z,78.35
2017-10-27T17:07:31.312Z,79.08
2017-10-27T17:10:14.086Z,78.33
2017-10-27T17:12:48.498Z,77.95
2017-10-27T17:15:22.983Z,77.99
2017-10-27T17:17:57.427Z,78.16
2017-10-27T17:20:34.392Z,78.05
2017-10-27T17:23:09.199Z,77.93
2017-10-27T17:25:43.681Z,78.51
2017-10-27T17:28:18.316Z,77.71
2017-10-27T17:30:53.683Z,78.55
2017-10-27T17:33:28.353Z,78.88
2017-10-27T17:36:03.197Z,78.54
2017-10-27T17:38:37.645Z,79.37
2017-10-27T17:41:11.707Z,78.94
2017-10-27T17:43:45.847Z,79.62
2017-10-27T17:46:19.996Z,79.26
2017-10-27T17:48:54.518Z,79.40
2017-10-27T17:51:28.994Z,79.06
2017-10-27T17:54:04.320Z,79.45
2017-10-27T17:56:38.730Z,79.38
2017-10-27T17:59:13.132Z,79.00
2017-10-27T18:01:47.673Z,79.17
2017-10-27T18:04:22.158Z,79.10
2017-10-27T18:06:59.230Z,78.82
2017-10-27T18:09:33.706Z,79.42
2017-10-27T18:12:08.131Z,79.98
2017-10-27T18:14:42.763Z,80.01
2017-10-27T18:17:16.800Z,80.09
2017-10-27T18:19:52.249Z,79.87
2017-10-27T18:22:26.431Z,79.58
2017-10-27T18:25:01.034Z,79.98
2017-10-27T18:31:12.422Z,79.11
2017-10-27T18:33:47.071Z,79.01
2017-10-27T18:36:21.218Z,78.38
2017-10-27T18:38:55.830Z,78.80
2017-10-27T18:41:31.052Z,78.02
2017-10-27T18:44:05.920Z,78.02
2017-10-27T18:46:40.315Z,77.50
2017-10-27T18:49:15.182Z,77.43
2017-10-27T18:51:49.575Z,77.46
2017-10-27T18:54:24.135Z,77.53
2017-10-27T18:56:58.574Z,76.93
2017-10-27T18:59:33.269Z,76.36
2017-10-27T19:02:07.658Z,76.43
2017-10-27T19:04:42.278Z,76.80
2017-10-27T19:07:17.572Z,76.40
2017-10-27T19:09:54.307Z,76.22
2017-10-27T19:12:28.923Z,75.69
2017-10-27T19:15:13.878Z,75.86
2017-10-27T19:17:48.483Z,76.33
2017-10-27T19:20:22.888Z,76.96
2017-10-27T19:22:57.345Z,76.87
2017-10-27T19:25:31.908Z,76.49
2017-10-27T19:28:07.080Z,76.20
2017-10-27T19:30:41.193Z,75.97
2017-10-27T19:33:26.858Z,76.66
2017-10-27T19:36:01.323Z,77.54
2017-10-27T19:38:35.929Z,77.61
2017-10-27T19:41:11.352Z,76.72
2017-10-27T19:43:45.983Z,76.67
2017-10-27T19:46:20.551Z,76.47
2017-10-27T19:48:55.083Z,76.29
2017-10-27T19:51:29.479Z,76.47
2017-10-27T19:54:05.499Z,76.77
2017-10-27T19:56:40.087Z,76.23
2017-10-27T19:59:16.095Z,76.63
2017-10-27T20:01:50.785Z,76.99
2017-10-27T20:04:25.366Z,77.08
2017-10-27T20:06:59.736Z,76.97
2017-10-27T20:09:34.302Z,76.78
2017-10-27T20:12:08.749Z,76.36
2017-10-27T20:14:43.953Z,76.68
2017-10-27T20:17:19.381Z,77.55
2017-10-27T20:19:54.738Z,77.88
2017-10-27T20:22:29.550Z,78.16
2017-10-27T20:25:13.968Z,77.83
2017-10-27T20:27:48.475Z,76.18
2017-10-27T20:30:23.567Z,76.75
2017-10-27T20:32:58.294Z,76.31
2017-10-27T20:35:32.847Z,75.71
2017-10-27T20:38:07.415Z,75.58
2017-10-27T20:40:41.906Z,75.87
2017-10-27T20:43:16.378Z,75.01
2017-10-27T20:45:50.787Z,75.25
2017-10-27T20:48:25.383Z,75.33
2017-10-27T20:50:59.871Z,75.62
2017-10-27T20:53:35.142Z,75.93
2017-10-27T20:56:09.737Z,76.51
2017-10-27T20:58:44.260Z,77.08
2017-10-27T21:01:19.727Z,77.09
2017-10-27T21:03:54.771Z,77.32
2017-10-27T21:06:30.855Z,77.96
2017-10-27T21:09:05.668Z,78.13
2017-10-27T21:11:40.299Z,78.37
2017-10-27T21:14:14.816Z,78.53
2017-10-27T21:16:49.694Z,78.72
2017-10-27T21:19:24.227Z,78.82
2017-10-27T21:21:58.665Z,78.89
2017-10-27T21:24:33.102Z,79.02
2017-10-27T21:27:07.518Z,78.85
2017-10-27T21:29:41.975Z,78.64
2017-10-27T21:32:16.707Z,78.79
2017-10-27T21:34:51.290Z,78.96
2017-10-27T21:37:25.732Z,79.01
2017-10-27T21:40:00.265Z,78.79
2017-10-27T21:42:34.660Z,78.96
2017-10-27T21:45:16.419Z,79.08
2017-10-27T21:47:51.435Z,78.83
2017-10-27T21:50:25.869Z,78.99
2017-10-27T21:53:00.623Z,78.69
2017-10-27T21:55:35.128Z,78.63
2017-10-27T21:58:09.875Z,78.53
2017-10-27T22:00:44.357Z,79.22
2017-10-27T22:03:19.039Z,78.39
2017-10-27T22:05:53.695Z,78.06
2017-10-27T22:08:28.223Z,77.91
2017-10-27T22:11:02.710Z,77.29
2017-10-27T22:13:37.147Z,77.58
2017-10-27T22:16:11.922Z,77.40
2017-10-27T22:18:47.114Z,77.34
2017-10-27T22:21:21.910Z,76.89
2017-10-27T22:23:56.439Z,77.24
2017-10-27T22:26:30.972Z,76.90
2017-10-27T22:29:05.577Z,77.20
2017-10-27T22:31:40.553Z,77.25
2017-10-27T22:34:14.974Z,77.33
2017-10-27T22:36:49.635Z,76.94
2017-10-27T22:39:24.050Z,76.94
2017-10-27T22:41:58.459Z,76.67
2017-10-27T22:44:33.097Z,77.38
2017-10-27T22:47:07.742Z,77.85
2017-10-27T22:49:42.459Z,78.27
2017-10-27T22:52:16.918Z,78.30
2017-10-27T22:54:51.535Z,78.45
2017-10-27T22:57:26.020Z,78.75
2017-10-27T23:00:00.522Z,78.75
2017-10-27T23:02:34.966Z,78.91
2017-10-27T23:05:15.891Z,78.74
2017-10-27T23:07:55.876Z,78.77
2017-10-27T23:10:30.456Z,78.47
2017-10-27T23:13:04.991Z,77.65
2017-10-27T23:15:39.560Z,77.86
2017-10-27T23:18:13.998Z,78.21
2017-10-27T23:20:48.550Z,80.06
2017-10-27T23:23:23.138Z,82.25
2017-10-27T23:25:57.648Z,84.50
2017-10-27T23:28:32.133Z,84.26
2017-10-27T23:31:06.951Z,84.09
2017-10-27T23:33:41.345Z,84.66
2017-10-27T23:36:16.843Z,84.80
2017-10-27T23:38:51.348Z,85.67
2017-10-27T23:41:25.923Z,86.01
2017-10-27T23:44:00.465Z,84.35
2017-10-27T23:46:35.064Z,84.83
2017-10-27T23:49:09.620Z,83.67
2017-10-27T23:51:44.202Z,83.84
2017-10-27T23:54:18.729Z,83.77
2017-10-27T23:56:53.242Z,84.19
2017-10-27T23:59:27.806Z,86.02
